createdAt,value
2022-11-29T00:02:14.037Z,34.28
2022-11-29T00:04:40.638Z,31.83
2022-11-29T00:07:07.048Z,32.22
2022-11-29T00:09:33.404Z,27.75
2022-11-29T00:12:15.012Z,31.95
2022-11-29T00:14:41.638Z,36.70
2022-11-29T00:17:08.464Z,31.05
2022-11-29T00:19:36.201Z,29.40
2022-11-29T00:22:03.582Z,33.47
2022-11-29T00:24:32.312Z,33.83
2022-11-29T00:26:58.730Z,38.30
2022-11-29T00:29:25.132Z,31.42
2022-11-29T00:31:51.465Z,30.08
2022-11-29T00:34:17.821Z,31.08
2022-11-29T00:36:44.161Z,30.35
2022-11-29T00:39:12.033Z,34.33
2022-11-29T00:44:05.295Z,37.03
2022-11-29T00:46:31.629Z,36.25
2022-11-29T00:48:57.961Z,28.33
2022-11-29T00:51:24.368Z,30.60
2022-11-29T00:53:50.764Z,31.42
2022-11-29T00:56:17.268Z,28.98
2022-11-29T00:58:43.781Z,29.27
2022-11-29T01:01:10.913Z,29.05
2022-11-29T01:03:37.374Z,30.23
2022-11-29T01:06:05.568Z,28.65
2022-11-29T01:08:32.160Z,28.52
2022-11-29T01:11:12.761Z,26.50
2022-11-29T01:13:39.458Z,28.85
2022-11-29T01:16:06.228Z,26.27
2022-11-29T01:18:33.160Z,27.88
2022-11-29T01:21:01.157Z,26.83
2022-11-29T01:26:01.372Z,26.83
2022-11-29T01:28:28.345Z,27.52
2022-11-29T01:30:54.766Z,22.13
2022-11-29T01:33:21.177Z,25.52
2022-11-29T01:35:48.522Z,25.15
2022-11-29T01:38:14.892Z,22.85
2022-11-29T01:40:41.250Z,23.67
2022-11-29T01:43:25.744Z,24.77
2022-11-29T01:45:52.290Z,21.45
2022-11-29T01:48:19.846Z,23.25
2022-11-29T01:50:46.273Z,20.67
2022-11-29T01:53:14.088Z,23.08
2022-11-29T01:55:41.490Z,23.63
2022-11-29T01:58:08.411Z,28.60
2022-11-29T02:00:35.105Z,24.77
2022-11-29T02:03:11.957Z,24.63
2022-11-29T02:05:39.623Z,22.33
2022-11-29T02:08:07.022Z,21.83
2022-11-29T02:10:47.514Z,22.02
2022-11-29T02:13:26.053Z,20.10
2022-11-29T02:15:56.899Z,20.33
2022-11-29T02:18:32.011Z,20.25
2022-11-29T02:21:23.170Z,20.52
2022-11-29T02:23:49.497Z,22.77
2022-11-29T02:26:18.577Z,22.88
2022-11-29T02:28:47.985Z,21.40
2022-11-29T02:31:33.216Z,19.70
2022-11-29T02:34:08.693Z,19.85
2022-11-29T02:36:47.380Z,18.92
2022-11-29T02:39:30.357Z,21.48
2022-11-29T02:41:59.831Z,18.50
2022-11-29T02:44:38.402Z,19.45
2022-11-29T02:47:07.720Z,19.48
2022-11-29T02:49:37.145Z,17.15
2022-11-29T02:52:07.513Z,19.38
2022-11-29T02:54:33.867Z,20.63
2022-11-29T02:57:04.354Z,20.75
2022-11-29T02:59:39.133Z,19.38
2022-11-29T03:02:12.850Z,17.55
2022-11-29T03:04:45.661Z,17.65
2022-11-29T03:07:31.263Z,18.13
2022-11-29T03:10:16.222Z,18.35
2022-11-29T03:12:47.422Z,18.92
2022-11-29T03:15:19.735Z,19.42
2022-11-29T03:17:59.812Z,18.23
2022-11-29T03:20:28.996Z,18.35
2022-11-29T03:23:08.655Z,16.00
2022-11-29T03:25:48.541Z,18.27
2022-11-29T03:28:18.827Z,17.63
2022-11-29T03:31:01.599Z,18.70
2022-11-29T03:33:32.915Z,18.63
2022-11-29T03:36:04.438Z,16.42
2022-11-29T03:38:44.289Z,17.33
2022-11-29T03:41:32.583Z,19.25
2022-11-29T03:44:07.785Z,15.00
2022-11-29T03:46:43.287Z,16.50
2022-11-29T03:49:16.237Z,17.35
2022-11-29T03:51:49.209Z,14.50
2022-11-29T03:54:22.584Z,17.67
2022-11-29T03:56:49.144Z,15.35
2022-11-29T03:59:29.297Z,14.13
2022-11-29T04:02:14.453Z,16.52
2022-11-29T04:04:46.927Z,16.35
2022-11-29T04:07:13.452Z,16.20
2022-11-29T04:09:42.906Z,15.25
2022-11-29T04:12:22.342Z,14.20
2022-11-29T04:15:10.458Z,14.77
2022-11-29T04:17:42.117Z,17.48
2022-11-29T04:20:17.389Z,15.95
2022-11-29T04:23:03.155Z,17.15
2022-11-29T04:25:40.476Z,13.07
2022-11-29T04:28:06.874Z,16.65
2022-11-29T04:30:52.071Z,15.48
2022-11-29T04:33:36.912Z,14.85
2022-11-29T04:36:19.380Z,17.17
2022-11-29T04:39:08.796Z,15.30
2022-11-29T04:41:44.091Z,16.48
2022-11-29T04:44:13.446Z,16.85
2022-11-29T04:46:56.604Z,13.75
2022-11-29T04:49:35.621Z,12.57
2022-11-29T04:52:01.918Z,14.50
2022-11-29T04:54:31.343Z,14.73
2022-11-29T04:57:20.957Z,15.52
2022-11-29T04:59:49.816Z,15.48
2022-11-29T05:02:35.473Z,15.93
2022-11-29T05:05:01.830Z,16.45
2022-11-29T05:07:43.359Z,14.55
2022-11-29T05:10:20.686Z,15.60
2022-11-29T05:13:01.789Z,15.30
2022-11-29T05:15:28.140Z,14.63
2022-11-29T05:18:13.000Z,15.00
2022-11-29T05:20:39.444Z,15.40
2022-11-29T05:23:08.669Z,13.52
2022-11-29T05:25:35.262Z,13.57
2022-11-29T05:28:10.928Z,13.40
2022-11-29T05:30:55.914Z,12.55
2022-11-29T05:33:36.602Z,14.40
2022-11-29T05:36:12.110Z,15.50
2022-11-29T05:38:52.409Z,16.63
2022-11-29T05:41:30.825Z,14.10
2022-11-29T05:44:14.089Z,18.15
2022-11-29T05:46:49.911Z,16.23
2022-11-29T05:49:38.157Z,14.57
2022-11-29T05:52:04.534Z,17.48
2022-11-29T05:54:36.938Z,16.45
2022-11-29T05:57:03.268Z,15.38
2022-11-29T05:59:30.811Z,15.80
2022-11-29T06:02:12.324Z,15.05
2022-11-29T06:04:57.241Z,15.48
2022-11-29T06:07:35.683Z,14.10
2022-11-29T06:10:05.174Z,18.15
2022-11-29T06:12:35.795Z,27.20
2022-11-29T06:15:04.877Z,28.98
2022-11-29T06:17:48.703Z,42.88
2022-11-29T06:20:30.151Z,32.08
2022-11-29T06:23:05.570Z,38.47
2022-11-29T06:25:43.166Z,33.08
2022-11-29T06:28:15.483Z,42.80
2022-11-29T06:30:44.800Z,53.22
2022-11-29T06:33:22.672Z,35.08
2022-11-29T06:38:21.419Z,37.67
2022-11-29T06:40:48.655Z,42.83
2022-11-29T06:43:15.246Z,39.13
2022-11-29T06:45:45.547Z,50.95
2022-11-29T06:48:15.500Z,61.08
2022-11-29T06:50:54.002Z,54.78
2022-11-29T06:53:32.546Z,60.00
2022-11-29T06:56:01.874Z,64.70
2022-11-29T06:58:36.070Z,59.15
2022-11-29T07:01:02.852Z,71.75
2022-11-29T07:03:35.452Z,48.00
2022-11-29T07:06:08.853Z,54.67
2022-11-29T07:08:35.711Z,38.85
2022-11-29T07:11:02.198Z,55.05
2022-11-29T07:13:28.725Z,49.08
2022-11-29T07:15:58.396Z,41.63
2022-11-29T07:18:46.531Z,35.67
2022-11-29T07:21:21.273Z,42.65
2022-11-29T07:23:59.788Z,55.05
2022-11-29T07:26:38.583Z,37.42
2022-11-29T07:29:05.091Z,37.13
2022-11-29T07:31:41.654Z,77.18
2022-11-29T07:34:14.240Z,44.80
2022-11-29T07:36:59.378Z,45.75
2022-11-29T07:39:37.903Z,55.80
2022-11-29T07:42:20.943Z,56.33
2022-11-29T07:44:55.412Z,60.65
2022-11-29T07:47:21.712Z,64.45
2022-11-29T07:49:48.034Z,75.78
2022-11-29T07:52:16.140Z,52.65
2022-11-29T07:57:09.170Z,71.82
2022-11-29T07:59:35.504Z,73.20
2022-11-29T08:02:02.820Z,87.57
2022-11-29T08:04:31.057Z,72.85
2022-11-29T08:07:00.737Z,95.85
2022-11-29T08:09:27.091Z,77.20
2022-11-29T08:11:53.449Z,117.53
2022-11-29T08:14:19.865Z,85.72
2022-11-29T08:16:46.247Z,76.50
2022-11-29T08:19:12.633Z,73.63
2022-11-29T08:21:39.025Z,64.05
2022-11-29T08:24:05.448Z,74.97
2022-11-29T08:26:32.134Z,99.90
2022-11-29T08:28:58.496Z,100.00
2022-11-29T08:31:24.893Z,70.28
2022-11-29T08:33:51.315Z,70.45
2022-11-29T08:36:19.069Z,72.10
2022-11-29T08:38:46.045Z,101.78
2022-11-29T08:41:13.685Z,91.50
2022-11-29T08:43:40.329Z,67.38
2022-11-29T08:46:06.744Z,82.97
2022-11-29T08:48:33.861Z,93.63
2022-11-29T08:51:00.220Z,97.30
2022-11-29T08:53:43.087Z,101.00
2022-11-29T08:56:53.419Z,127.60
2022-11-29T08:58:59.686Z,122.70
2022-11-29T09:01:26.275Z,143.95
2022-11-29T09:04:07.040Z,62.65
2022-11-29T09:06:44.348Z,78.18
2022-11-29T09:09:10.662Z,77.28
2022-11-29T09:11:37.112Z,99.03
2022-11-29T09:14:05.100Z,99.10
2022-11-29T09:18:57.737Z,77.50
2022-11-29T09:21:24.933Z,66.35
2022-11-29T09:23:58.426Z,67.33
2022-11-29T09:26:27.232Z,69.93
2022-11-29T09:28:53.863Z,80.95
2022-11-29T09:31:20.556Z,73.47
2022-11-29T09:33:47.824Z,52.17
2022-11-29T09:36:14.632Z,54.88
2022-11-29T09:38:41.097Z,52.88
2022-11-29T09:41:26.116Z,33.58
2022-11-29T09:44:00.717Z,45.30
2022-11-29T09:46:39.390Z,33.30
2022-11-29T09:49:25.772Z,56.33
2022-11-29T09:52:04.095Z,40.35
2022-11-29T09:54:47.528Z,43.17
2022-11-29T09:57:16.076Z,51.42
2022-11-29T09:59:44.950Z,48.60
2022-11-29T10:02:21.825Z,25.80
2022-11-29T10:05:01.125Z,33.20
2022-11-29T10:07:35.184Z,44.70
2022-11-29T10:10:21.889Z,70.47
2022-11-29T10:13:11.529Z,48.25
2022-11-29T10:15:39.934Z,37.13
2022-11-29T10:18:09.280Z,41.25
2022-11-29T10:20:41.540Z,37.90
2022-11-29T10:23:29.448Z,35.33
2022-11-29T10:25:56.484Z,49.95
2022-11-29T10:28:27.343Z,41.40
2022-11-29T10:30:54.642Z,43.30
2022-11-29T10:33:23.198Z,40.05
2022-11-29T10:35:51.079Z,36.90
2022-11-29T10:38:32.806Z,23.85
2022-11-29T10:41:04.216Z,53.25
2022-11-29T10:43:30.553Z,35.70
2022-11-29T10:45:58.707Z,60.00
2022-11-29T10:48:27.265Z,50.78
2022-11-29T10:50:53.667Z,38.58
2022-11-29T10:53:22.835Z,36.85
2022-11-29T10:55:58.897Z,43.00
2022-11-29T10:58:28.389Z,32.13
2022-11-29T11:01:02.730Z,46.22
2022-11-29T11:03:32.220Z,48.53
2022-11-29T11:06:13.642Z,46.78
2022-11-29T11:08:44.727Z,34.00
2022-11-29T11:11:11.704Z,35.70
2022-11-29T11:13:39.261Z,59.00
2022-11-29T11:16:16.957Z,57.08
2022-11-29T11:18:43.968Z,38.05
2022-11-29T11:21:11.520Z,29.80
2022-11-29T11:23:43.011Z,64.20
2022-11-29T11:26:11.300Z,47.08
2022-11-29T11:28:48.115Z,59.15
2022-11-29T11:31:14.674Z,62.15
2022-11-29T11:33:44.870Z,47.92
2022-11-29T11:36:15.192Z,53.95
2022-11-29T11:38:55.088Z,31.83
2022-11-29T11:41:46.509Z,46.70
2022-11-29T11:47:16.783Z,50.47
2022-11-29T11:49:47.367Z,43.83
2022-11-29T11:52:19.863Z,56.33
2022-11-29T11:54:51.545Z,77.40
2022-11-29T11:57:18.683Z,57.88
2022-11-29T11:59:49.245Z,62.63
2022-11-29T12:02:36.329Z,52.45
2022-11-29T12:05:04.831Z,50.33
2022-11-29T12:08:06.155Z,56.60
2022-11-29T12:10:24.244Z,60.33
2022-11-29T12:12:51.243Z,48.00
2022-11-29T12:15:19.620Z,57.22
2022-11-29T12:17:50.665Z,65.80
2022-11-29T12:20:16.996Z,66.40
2022-11-29T12:22:58.321Z,62.65
2022-11-29T12:25:27.124Z,41.60
2022-11-29T12:27:53.525Z,61.42
2022-11-29T12:30:19.869Z,44.03
2022-11-29T12:32:57.854Z,19.70
2022-11-29T12:35:30.378Z,38.65
2022-11-29T12:37:56.724Z,25.63
2022-11-29T12:40:27.900Z,35.65
2022-11-29T12:43:26.518Z,41.55
2022-11-29T12:46:12.683Z,43.85
2022-11-29T12:48:49.761Z,51.78
2022-11-29T12:51:34.952Z,43.87
2022-11-29T12:54:16.116Z,35.22
2022-11-29T12:56:47.070Z,46.53
2022-11-29T12:59:13.369Z,53.92
2022-11-29T13:01:39.740Z,41.42
2022-11-29T13:04:16.088Z,32.40
2022-11-29T13:06:47.712Z,62.38
2022-11-29T13:09:14.015Z,33.72
2022-11-29T13:11:43.270Z,32.67
2022-11-29T13:14:42.121Z,45.03
2022-11-29T13:17:15.772Z,27.95
2022-11-29T13:19:50.197Z,26.10
2022-11-29T13:22:28.984Z,42.42
2022-11-29T13:25:01.365Z,32.17
2022-11-29T13:27:27.694Z,31.77
2022-11-29T13:29:54.505Z,25.33
2022-11-29T13:32:31.333Z,31.95
2022-11-29T13:35:01.366Z,35.25
2022-11-29T13:37:35.329Z,33.60
2022-11-29T13:40:20.593Z,23.63
2022-11-29T13:42:51.377Z,14.15
2022-11-29T13:45:53.115Z,22.30
2022-11-29T13:48:28.371Z,23.95
2022-11-29T13:50:55.781Z,29.20
2022-11-29T13:53:23.660Z,25.50
2022-11-29T13:55:59.982Z,17.02
2022-11-29T13:58:30.569Z,34.50
2022-11-29T14:01:00.981Z,19.50
2022-11-29T14:03:32.253Z,13.07
2022-11-29T14:06:01.389Z,15.45
2022-11-29T14:08:54.546Z,25.35
2022-11-29T14:11:22.413Z,23.25
2022-11-29T14:13:51.904Z,29.65
2022-11-29T14:16:27.509Z,38.33
2022-11-29T14:19:03.902Z,22.50
2022-11-29T14:21:48.843Z,27.63
2022-11-29T14:24:36.792Z,26.17
2022-11-29T14:27:06.167Z,45.45
2022-11-29T14:29:54.063Z,34.47
2022-11-29T14:32:26.612Z,27.58
2022-11-29T14:34:52.960Z,26.98
2022-11-29T14:37:27.290Z,33.25
2022-11-29T14:39:55.000Z,51.35
2022-11-29T14:42:23.100Z,29.45
2022-11-29T14:44:51.552Z,50.03
2022-11-29T14:47:47.277Z,40.67
2022-11-29T14:50:28.500Z,41.42
2022-11-29T14:52:54.829Z,45.15
2022-11-29T14:55:21.136Z,50.47
2022-11-29T14:57:47.789Z,47.88
2022-11-29T15:00:14.240Z,35.25
2022-11-29T15:02:49.694Z,30.58
2022-11-29T15:05:31.417Z,25.33
2022-11-29T15:08:03.858Z,45.40
2022-11-29T15:10:33.439Z,28.00
2022-11-29T15:13:00.514Z,31.85
2022-11-29T15:15:32.919Z,26.50
2022-11-29T15:18:11.408Z,32.83
2022-11-29T15:20:46.221Z,29.50
2022-11-29T15:23:14.979Z,28.27
2022-11-29T15:25:50.555Z,24.13
2022-11-29T15:28:21.375Z,33.88
2022-11-29T15:30:48.801Z,41.58
2022-11-29T15:33:19.755Z,44.03
2022-11-29T15:35:50.637Z,37.75
2022-11-29T15:38:18.024Z,56.70
2022-11-29T15:40:52.215Z,36.60
2022-11-29T15:43:23.616Z,32.83
2022-11-29T15:45:50.695Z,37.45
2022-11-29T15:48:20.316Z,29.70
2022-11-29T15:50:52.645Z,48.55
2022-11-29T15:53:25.732Z,42.60
2022-11-29T15:55:54.009Z,44.83
2022-11-29T15:58:20.513Z,33.78
2022-11-29T16:00:49.849Z,31.58
2022-11-29T16:03:25.443Z,29.58
2022-11-29T16:06:04.186Z,24.95
2022-11-29T16:08:33.608Z,43.42
2022-11-29T16:11:00.441Z,51.78
2022-11-29T16:13:32.862Z,35.40
2022-11-29T16:16:14.252Z,47.25
2022-11-29T16:18:41.919Z,47.80
2022-11-29T16:21:21.657Z,68.78
2022-11-29T16:23:49.260Z,50.95
2022-11-29T16:26:22.497Z,54.03
2022-11-29T16:28:50.421Z,30.80
2022-11-29T16:31:18.209Z,32.58
2022-11-29T16:33:45.359Z,38.78
2022-11-29T16:36:11.798Z,37.50
2022-11-29T16:38:43.301Z,38.55
2022-11-29T16:41:21.397Z,32.88
2022-11-29T16:43:53.566Z,44.03
2022-11-29T16:46:19.921Z,44.40
2022-11-29T16:48:46.599Z,50.47
2022-11-29T16:51:13.505Z,48.55
2022-11-29T16:53:42.281Z,55.08
2022-11-29T16:56:10.895Z,47.92
2022-11-29T16:59:16.573Z,34.45
2022-11-29T17:01:26.108Z,37.35
2022-11-29T17:03:52.906Z,26.65
2022-11-29T17:06:23.733Z,33.13
2022-11-29T17:08:54.254Z,26.90
2022-11-29T17:11:20.789Z,38.35
2022-11-29T17:13:47.832Z,39.63
2022-11-29T17:16:15.024Z,45.10
2022-11-29T17:18:42.145Z,33.40
2022-11-29T17:21:18.097Z,44.93
2022-11-29T17:23:45.140Z,35.90
2022-11-29T17:26:11.457Z,29.50
2022-11-29T17:28:39.733Z,35.67
2022-11-29T17:31:10.382Z,25.88
2022-11-29T17:33:36.713Z,40.20
2022-11-29T17:36:07.313Z,48.22
2022-11-29T17:38:33.930Z,40.60
2022-11-29T17:41:00.293Z,53.22
2022-11-29T17:43:26.702Z,43.72
2022-11-29T17:45:53.150Z,60.92
2022-11-29T17:48:19.572Z,60.58
2022-11-29T17:50:45.918Z,47.72
2022-11-29T17:53:12.269Z,37.95
2022-11-29T17:55:38.689Z,40.63
2022-11-29T17:58:05.046Z,38.90
2022-11-29T18:00:31.369Z,34.47
2022-11-29T18:02:57.759Z,38.22
2022-11-29T18:05:24.138Z,34.33
2022-11-29T18:07:59.707Z,27.85
2022-11-29T18:10:27.332Z,28.80
2022-11-29T18:12:54.129Z,26.42
2022-11-29T18:15:20.558Z,29.02
2022-11-29T18:17:46.923Z,26.80
2022-11-29T18:20:14.162Z,25.45
2022-11-29T18:22:40.488Z,23.50
2022-11-29T18:25:36.918Z,19.83
2022-11-29T18:27:53.347Z,18.67
2022-11-29T18:30:19.735Z,16.70
2022-11-29T18:32:46.106Z,21.35
2022-11-29T18:35:12.449Z,22.17
2022-11-29T18:38:12.995Z,22.27
2022-11-29T18:40:25.111Z,22.02
2022-11-29T18:42:51.468Z,20.40
2022-11-29T18:45:17.781Z,25.33
2022-11-29T18:47:44.482Z,25.05
2022-11-29T18:50:11.046Z,22.83
2022-11-29T18:52:40.713Z,22.02
2022-11-29T18:55:07.485Z,24.08
2022-11-29T18:57:33.874Z,21.10
2022-11-29T19:00:00.211Z,23.80
2022-11-29T19:02:26.607Z,22.58
2022-11-29T19:04:52.915Z,20.75
2022-11-29T19:07:19.313Z,22.10
2022-11-29T19:09:45.705Z,22.52
2022-11-29T19:12:12.081Z,19.48
2022-11-29T19:14:40.975Z,17.88
2022-11-29T19:17:09.116Z,17.77
2022-11-29T19:19:35.544Z,18.65
2022-11-29T19:22:01.913Z,16.02
2022-11-29T19:24:28.248Z,18.48
2022-11-29T19:26:56.203Z,18.55
2022-11-29T19:31:50.337Z,20.20
2022-11-29T19:34:16.727Z,17.55
2022-11-29T19:36:44.133Z,21.05
2022-11-29T19:39:12.170Z,20.15
2022-11-29T19:41:38.757Z,22.98
2022-11-29T19:44:06.316Z,26.02
2022-11-29T19:46:34.060Z,26.92
2022-11-29T19:49:00.818Z,19.98
2022-11-29T19:51:28.129Z,21.23
2022-11-29T19:53:55.336Z,21.40
2022-11-29T19:56:21.708Z,26.13
2022-11-29T19:58:48.076Z,25.40
2022-11-29T20:01:25.265Z,24.27
2022-11-29T20:03:52.327Z,19.80
2022-11-29T20:06:19.030Z,19.83
2022-11-29T20:08:45.370Z,20.23
2022-11-29T20:11:19.712Z,18.48
2022-11-29T20:13:47.385Z,20.45
2022-11-29T20:16:15.906Z,23.48
2022-11-29T20:18:50.111Z,20.13
2022-11-29T20:21:18.878Z,21.13
2022-11-29T20:26:15.693Z,23.80
2022-11-29T20:28:42.361Z,27.05
2022-11-29T20:31:09.708Z,21.45
2022-11-29T20:33:36.144Z,25.83
2022-11-29T20:36:11.441Z,23.67
2022-11-29T20:38:43.909Z,36.92
2022-11-29T20:41:15.297Z,21.25
2022-11-29T20:43:46.981Z,21.23
2022-11-29T20:46:13.628Z,20.67
2022-11-29T20:48:40.141Z,24.73
2022-11-29T20:51:06.763Z,24.58
2022-11-29T20:53:35.106Z,19.85
2022-11-29T20:56:01.872Z,20.67
2022-11-29T20:58:28.193Z,21.73
2022-11-29T21:00:55.215Z,21.10
2022-11-29T21:03:22.266Z,21.17
2022-11-29T21:05:49.069Z,21.50
2022-11-29T21:08:16.268Z,24.02
2022-11-29T21:10:42.608Z,23.02
2022-11-29T21:13:10.654Z,24.17
2022-11-29T21:18:03.411Z,24.98
2022-11-29T21:20:29.891Z,25.48
2022-11-29T21:23:02.181Z,25.20
2022-11-29T21:25:31.500Z,27.88
2022-11-29T21:27:58.001Z,24.25
2022-11-29T21:30:24.881Z,23.60
2022-11-29T21:32:52.097Z,23.40
2022-11-29T21:35:18.606Z,25.05
2022-11-29T21:37:45.560Z,22.75
2022-11-29T21:40:12.661Z,25.88
2022-11-29T21:42:39.134Z,30.33
2022-11-29T21:45:09.284Z,25.95
2022-11-29T21:47:39.725Z,26.27
2022-11-29T21:50:06.489Z,26.05
2022-11-29T21:52:32.843Z,26.48
2022-11-29T21:54:59.232Z,26.42
2022-11-29T21:57:25.599Z,25.45
2022-11-29T21:59:51.974Z,29.20
2022-11-29T22:02:18.477Z,30.40
2022-11-29T22:04:45.395Z,29.00
2022-11-29T22:07:11.992Z,23.90
2022-11-29T22:09:38.487Z,26.35
2022-11-29T22:12:19.749Z,26.08
2022-11-29T22:14:51.348Z,27.25
2022-11-29T22:17:17.672Z,26.48
2022-11-29T22:19:44.005Z,26.85
2022-11-29T22:22:10.946Z,26.80
2022-11-29T22:24:37.726Z,30.92
2022-11-29T22:27:04.173Z,31.45
2022-11-29T22:29:30.537Z,31.52
2022-11-29T22:31:57.451Z,30.10
2022-11-29T22:34:25.235Z,29.95
2022-11-29T22:36:51.617Z,26.65
2022-11-29T22:39:17.933Z,28.15
2022-11-29T22:41:47.003Z,27.60
2022-11-29T22:44:15.729Z,29.15
2022-11-29T22:46:42.181Z,31.55
2022-11-29T22:49:08.850Z,30.52
2022-11-29T22:51:36.338Z,28.40
2022-11-29T22:54:04.440Z,30.13
2022-11-29T22:56:32.053Z,28.80
2022-11-29T22:58:58.500Z,31.48
2022-11-29T23:01:26.065Z,27.15
2022-11-29T23:03:54.494Z,26.52
2022-11-29T23:06:22.512Z,27.92
2022-11-29T23:11:19.532Z,27.08
2022-11-29T23:13:45.961Z,28.42
2022-11-29T23:16:13.516Z,27.52
2022-11-29T23:18:42.189Z,29.85
2022-11-29T23:21:12.773Z,27.88
2022-11-29T23:23:39.667Z,27.98
2022-11-29T23:26:06.708Z,29.85
2022-11-29T23:28:33.575Z,28.70
2022-11-29T23:30:59.962Z,26.55
2022-11-29T23:33:26.955Z,27.85
2022-11-29T23:35:59.478Z,28.58
2022-11-29T23:38:25.838Z,30.30
2022-11-29T23:40:52.173Z,29.40
2022-11-29T23:43:18.612Z,29.95
2022-11-29T23:45:45.041Z,34.22
2022-11-29T23:48:11.392Z,27.88
2022-11-29T23:50:37.723Z,30.17
2022-11-29T23:53:04.285Z,32.00
2022-11-29T23:55:30.671Z,33.47
2022-11-29T23:58:00.613Z,28.90
